Le Boreal — FLSY — position and weather

sailwx.info

Track history (hours):
 
Tides and Currents Weather Stations Pressure Air Temp Water Temp Dewpoint Dewpoint Depression Visibility Wind Speed Wind Dir Waves Ship Positions

Le Boreal

Last reported at 2018-Apr-21 17:24 UTC. Time now 2018-Apr-23 13:50 UTC.
Position N 14°35' W 061°05'.

Length 140 m; draft 5 m.

Type: Passenger vessel. MMSI: 578000500.

Date/timePositionNaut miles runAvg speedWind from/ knotsBaromVisibWave heightAir tempDewpointWater temp
2018-Apr-21 17:24N 14°35' W 061°05'2 0.1
2018-Apr-21 01:48N 14°36' W 061°04'1 1.8
2018-Apr-21 01:30N 14°36' W 061°04'5 8.3
2018-Apr-21 00:57N 14°32' W 061°07'716.5
2018-Apr-21 00:31N 14°25' W 061°07'815.5
2018-Apr-21 00:00N 14°17' W 061°06'  
2018-Apr-17 00:54N 10°25' W 075°44'912.6
2018-Apr-17 00:10N 10°19' W 075°37'210.6
2018-Apr-17 00:00N 10°19' W 075°35'510.7
2018-Apr-16 23:30N 10°24' W 075°32'1 1.7
2018-Apr-16 22:58N 10°24' W 075°32'0 0.0
2018-Apr-16 22:28N 10°24' W 075°32'0 0.0
2018-Apr-16 21:58N 10°24' W 075°32'0 0.0
2018-Apr-16 21:28N 10°24' W 075°32'0 0.0
2018-Apr-16 20:58N 10°24' W 075°32'0 0.0
2018-Apr-16 20:28N 10°24' W 075°32'0 0.0
2018-Apr-16 19:58N 10°24' W 075°32'0 0.0
2018-Apr-16 19:28N 10°24' W 075°32'0 0.0
2018-Apr-16 18:58N 10°24' W 075°32'0 0.0
2018-Apr-16 18:28N 10°24' W 075°32'0 0.0
2018-Apr-16 17:58N 10°24' W 075°32'0 0.0
2018-Apr-16 17:28N 10°24' W 075°32'0 0.0
2018-Apr-16 16:58N 10°24' W 075°32'0 0.0
2018-Apr-16 16:28N 10°24' W 075°32'0 0.0
2018-Apr-16 15:58N 10°24' W 075°32'0 0.0
2018-Apr-16 15:28N 10°24' W 075°32'0 0.0
2018-Apr-16 14:58N 10°24' W 075°32'0 0.0
2018-Apr-16 14:28N 10°24' W 075°32'0 0.0
2018-Apr-16 13:58N 10°24' W 075°32'0 0.0
2018-Apr-16 13:28N 10°24' W 075°32'0 0.0
2018-Apr-16 12:58N 10°24' W 075°32'0 0.0
2018-Apr-16 12:28N 10°24' W 075°32'1 2.2
2018-Apr-16 12:00N 10°23' W 075°33'4 9.2
2018-Apr-16 11:30N 10°19' W 075°34'4 7.7
2018-Apr-16 10:58N 10°18' W 075°38'3 6.8
2018-Apr-16 10:30N 10°17' W 075°41'4 7.3
2018-Apr-16 09:59N 10°16' W 075°45'242 8.2
2018-Apr-15 04:25N 09°35' W 079°46'510.7
2018-Apr-15 03:58N 09°31' W 079°49'511.8
2018-Apr-15 03:30N 09°26' W 079°52'5 9.1
2018-Apr-15 03:00N 09°22' W 079°54'0 0.7
2018-Apr-15 02:29N 09°22' W 079°54'0 0.0
2018-Apr-15 01:59N 09°22' W 079°54'0 0.0
2018-Apr-15 01:29N 09°22' W 079°54'0 0.0
2018-Apr-15 00:59N 09°22' W 079°54'0 0.0
2018-Apr-15 00:29N 09°22' W 079°54'0 0.0
2018-Apr-14 23:59N 09°22' W 079°54'0 0.0
2018-Apr-14 23:29N 09°22' W 079°54'0 0.0
2018-Apr-14 22:59N 09°22' W 079°54'0 0.0
2018-Apr-14 22:29N 09°22' W 079°54'0 0.0
2018-Apr-14 21:59N 09°22' W 079°54'0 0.0
2018-Apr-14 19:05N 09°22' W 079°54'0 0.0
2018-Apr-14 18:59N 09°22' W 079°54'0 0.0
2018-Apr-14 18:29N 09°22' W 079°54'0 0.0
2018-Apr-14 17:59N 09°22' W 079°54'0 0.0
2018-Apr-14 17:29N 09°22' W 079°54'0 0.0
2018-Apr-14 16:59N 09°22' W 079°54'0 0.0
2018-Apr-14 16:29N 09°22' W 079°54'0 0.0
2018-Apr-14 15:59N 09°22' W 079°54'0 0.0
2018-Apr-14 15:29N 09°22' W 079°54'0 0.0
2018-Apr-14 14:59N 09°22' W 079°54'0 0.0
2018-Apr-14 14:29N 09°22' W 079°54'0 0.0
2018-Apr-14 13:59N 09°22' W 079°54'0 0.0
2018-Apr-14 13:29N 09°22' W 079°54'0 0.0
2018-Apr-14 12:59N 09°22' W 079°54'0 0.0
2018-Apr-14 12:29N 09°22' W 079°54'0 0.0
2018-Apr-14 11:59N 09°22' W 079°54'0 0.0
2018-Apr-14 11:29N 09°22' W 079°54'0 0.0
2018-Apr-14 10:56N 09°22' W 079°54'0 0.0
2018-Apr-14 10:29N 09°22' W 079°54'0 0.0
2018-Apr-14 09:59N 09°22' W 079°54'0 0.0
2018-Apr-14 09:26N 09°22' W 079°54'0 0.0
2018-Apr-14 08:59N 09°22' W 079°54'0 0.0
2018-Apr-14 08:29N 09°22' W 079°54'0 0.0
2018-Apr-14 07:59N 09°22' W 079°54'0 0.0
2018-Apr-14 07:29N 09°22' W 079°54'0 0.0
2018-Apr-14 06:59N 09°22' W 079°54'0 0.0
2018-Apr-14 06:29N 09°22' W 079°54'0 0.0
2018-Apr-14 05:59N 09°22' W 079°54'0 0.0
2018-Apr-14 05:29N 09°22' W 079°54'0 0.0
2018-Apr-14 04:59N 09°22' W 079°54'0 0.0
2018-Apr-14 04:29N 09°22' W 079°54'0 0.0
2018-Apr-14 03:59N 09°22' W 079°54'0 0.0
2018-Apr-14 03:29N 09°22' W 079°54'0 0.0
2018-Apr-14 02:59N 09°22' W 079°54'0 0.0
2018-Apr-14 02:29N 09°22' W 079°54'0 0.0
2018-Apr-14 01:59N 09°22' W 079°54'0 0.0
2018-Apr-14 01:29N 09°22' W 079°54'0 0.0
2018-Apr-14 00:59N 09°22' W 079°54'0 0.0
2018-Apr-14 00:29N 09°22' W 079°54'0 0.0
2018-Apr-13 23:59N 09°22' W 079°54'0 0.0
2018-Apr-13 23:29N 09°22' W 079°54'0 0.0
2018-Apr-13 22:59N 09°22' W 079°54'0 0.0
2018-Apr-13 22:29N 09°22' W 079°54'0 0.0
2018-Apr-13 21:59N 09°22' W 079°54'0 0.0
2018-Apr-13 21:29N 09°22' W 079°54'0 0.5
2018-Apr-13 21:00N 09°22' W 079°54'2 4.1
2018-Apr-13 20:30N 09°24' W 079°54'1 2.4
2018-Apr-13 20:00N 09°25' W 079°54'4 8.7
2018-Apr-13 19:30N 09°21' W 079°55'4 7.9
2018-Apr-13 19:00N 09°17' W 079°55'0 0.6
2018-Apr-13 18:26N 09°16' W 079°55'0 0.5
2018-Apr-13 18:00N 09°16' W 079°55'1 2.9
2018-Apr-13 17:31N 09°15' W 079°55'  
Track history (hours):
 
Tides and Currents Weather Stations Pressure Air Temp Water Temp Dewpoint Dewpoint Depression Visibility Wind Speed Wind Dir Waves Ship Positions

Le Boreal

Last reported at 2018-Apr-21 17:24 UTC. Time now 2018-Apr-23 13:50 UTC.
Position N 14°35' W 061°05'.

Length 140 m; draft 5 m.

Type: Passenger vessel. MMSI: 578000500.

Date/timePositionNaut miles runAvg speedWind from/ knotsBaromVisibWave heightAir tempDewpointWater temp
2018-Apr-21 17:24N 14°35' W 061°05'2 0.1
2018-Apr-21 01:48N 14°36' W 061°04'1 1.8
2018-Apr-21 01:30N 14°36' W 061°04'5 8.3
2018-Apr-21 00:57N 14°32' W 061°07'716.5
2018-Apr-21 00:31N 14°25' W 061°07'815.5
2018-Apr-21 00:00N 14°17' W 061°06'  
2018-Apr-17 00:54N 10°25' W 075°44'912.6
2018-Apr-17 00:10N 10°19' W 075°37'210.6
2018-Apr-17 00:00N 10°19' W 075°35'510.7
2018-Apr-16 23:30N 10°24' W 075°32'1 1.7
2018-Apr-16 22:58N 10°24' W 075°32'0 0.0
2018-Apr-16 22:28N 10°24' W 075°32'0 0.0
2018-Apr-16 21:58N 10°24' W 075°32'0 0.0
2018-Apr-16 21:28N 10°24' W 075°32'0 0.0
2018-Apr-16 20:58N 10°24' W 075°32'0 0.0
2018-Apr-16 20:28N 10°24' W 075°32'0 0.0
2018-Apr-16 19:58N 10°24' W 075°32'0 0.0
2018-Apr-16 19:28N 10°24' W 075°32'0 0.0
2018-Apr-16 18:58N 10°24' W 075°32'0 0.0
2018-Apr-16 18:28N 10°24' W 075°32'0 0.0
2018-Apr-16 17:58N 10°24' W 075°32'0 0.0
2018-Apr-16 17:28N 10°24' W 075°32'0 0.0
2018-Apr-16 16:58N 10°24' W 075°32'0 0.0
2018-Apr-16 16:28N 10°24' W 075°32'0 0.0
2018-Apr-16 15:58N 10°24' W 075°32'0 0.0
2018-Apr-16 15:28N 10°24' W 075°32'0 0.0
2018-Apr-16 14:58N 10°24' W 075°32'0 0.0
2018-Apr-16 14:28N 10°24' W 075°32'0 0.0
2018-Apr-16 13:58N 10°24' W 075°32'0 0.0
2018-Apr-16 13:28N 10°24' W 075°32'0 0.0
2018-Apr-16 12:58N 10°24' W 075°32'0 0.0
2018-Apr-16 12:28N 10°24' W 075°32'1 2.2
2018-Apr-16 12:00N 10°23' W 075°33'4 9.2
2018-Apr-16 11:30N 10°19' W 075°34'4 7.7
2018-Apr-16 10:58N 10°18' W 075°38'3 6.8
2018-Apr-16 10:30N 10°17' W 075°41'4 7.3
2018-Apr-16 09:59N 10°16' W 075°45'242 8.2
2018-Apr-15 04:25N 09°35' W 079°46'510.7
2018-Apr-15 03:58N 09°31' W 079°49'511.8
2018-Apr-15 03:30N 09°26' W 079°52'5 9.1
2018-Apr-15 03:00N 09°22' W 079°54'0 0.7
2018-Apr-15 02:29N 09°22' W 079°54'0 0.0
2018-Apr-15 01:59N 09°22' W 079°54'0 0.0
2018-Apr-15 01:29N 09°22' W 079°54'0 0.0
2018-Apr-15 00:59N 09°22' W 079°54'0 0.0
2018-Apr-15 00:29N 09°22' W 079°54'0 0.0
2018-Apr-14 23:59N 09°22' W 079°54'0 0.0
2018-Apr-14 23:29N 09°22' W 079°54'0 0.0
2018-Apr-14 22:59N 09°22' W 079°54'0 0.0
2018-Apr-14 22:29N 09°22' W 079°54'0 0.0
2018-Apr-14 21:59N 09°22' W 079°54'0 0.0
2018-Apr-14 19:05N 09°22' W 079°54'0 0.0
2018-Apr-14 18:59N 09°22' W 079°54'0 0.0
2018-Apr-14 18:29N 09°22' W 079°54'0 0.0
2018-Apr-14 17:59N 09°22' W 079°54'0 0.0
2018-Apr-14 17:29N 09°22' W 079°54'0 0.0
2018-Apr-14 16:59N 09°22' W 079°54'0 0.0
2018-Apr-14 16:29N 09°22' W 079°54'0 0.0
2018-Apr-14 15:59N 09°22' W 079°54'0 0.0
2018-Apr-14 15:29N 09°22' W 079°54'0 0.0
2018-Apr-14 14:59N 09°22' W 079°54'0 0.0
2018-Apr-14 14:29N 09°22' W 079°54'0 0.0
2018-Apr-14 13:59N 09°22' W 079°54'0 0.0
2018-Apr-14 13:29N 09°22' W 079°54'0 0.0
2018-Apr-14 12:59N 09°22' W 079°54'0 0.0
2018-Apr-14 12:29N 09°22' W 079°54'0 0.0
2018-Apr-14 11:59N 09°22' W 079°54'0 0.0
2018-Apr-14 11:29N 09°22' W 079°54'0 0.0
2018-Apr-14 10:56N 09°22' W 079°54'0 0.0
2018-Apr-14 10:29N 09°22' W 079°54'0 0.0
2018-Apr-14 09:59N 09°22' W 079°54'0 0.0
2018-Apr-14 09:26N 09°22' W 079°54'0 0.0
2018-Apr-14 08:59N 09°22' W 079°54'0 0.0
2018-Apr-14 08:29N 09°22' W 079°54'0 0.0
2018-Apr-14 07:59N 09°22' W 079°54'0 0.0
2018-Apr-14 07:29N 09°22' W 079°54'0 0.0
2018-Apr-14 06:59N 09°22' W 079°54'0 0.0
2018-Apr-14 06:29N 09°22' W 079°54'0 0.0
2018-Apr-14 05:59N 09°22' W 079°54'0 0.0
2018-Apr-14 05:29N 09°22' W 079°54'0 0.0
2018-Apr-14 04:59N 09°22' W 079°54'0 0.0
2018-Apr-14 04:29N 09°22' W 079°54'0 0.0
2018-Apr-14 03:59N 09°22' W 079°54'0 0.0
2018-Apr-14 03:29N 09°22' W 079°54'0 0.0
2018-Apr-14 02:59N 09°22' W 079°54'0 0.0
2018-Apr-14 02:29N 09°22' W 079°54'0 0.0
2018-Apr-14 01:59N 09°22' W 079°54'0 0.0
2018-Apr-14 01:29N 09°22' W 079°54'0 0.0
2018-Apr-14 00:59N 09°22' W 079°54'0 0.0
2018-Apr-14 00:29N 09°22' W 079°54'0 0.0
2018-Apr-13 23:59N 09°22' W 079°54'0 0.0
2018-Apr-13 23:29N 09°22' W 079°54'0 0.0
2018-Apr-13 22:59N 09°22' W 079°54'0 0.0
2018-Apr-13 22:29N 09°22' W 079°54'0 0.0
2018-Apr-13 21:59N 09°22' W 079°54'0 0.0
2018-Apr-13 21:29N 09°22' W 079°54'0 0.5
2018-Apr-13 21:00N 09°22' W 079°54'2 4.1
2018-Apr-13 20:30N 09°24' W 079°54'1 2.4
2018-Apr-13 20:00N 09°25' W 079°54'4 8.7
2018-Apr-13 19:30N 09°21' W 079°55'4 7.9
2018-Apr-13 19:00N 09°17' W 079°55'0 0.6
2018-Apr-13 18:26N 09°16' W 079°55'0 0.5
2018-Apr-13 18:00N 09°16' W 079°55'1 2.9
2018-Apr-13 17:31N 09°15' W 079°55'  

Dump ship's entire track history